Portada
METAR-TAF:

METAR-TAF

Aeroports :

Bangalore, Índia

latitud: 12-57-00N, longitud: 077-40-06E, altitud: 888 m

Observació

L'informe es va fer fa 20 minuts, a les 00:30 UTC
Vent calma
Temperatura 18°C
Humitat 77%
Pressió 1017 hPa
Visibilitat: 6000 m

METAR: VOBG 060030Z 00000KT 6000 NSC 18/14 Q1017 NOSIG

Hora: 06:20 (00:50 UTC)

Pronòstic

L'informe es va fer fa 1 hora i 50 minuts, a les 23:00 UTC
Pronòstic vàlid del 06 a les 00 UTC al 06 a les 09 UTC
Vent 2 kt amb direcció variable
Visibilitat: 5000 m
Escasses núvols a una alçada de 1000 ft
boirina
Temporalment
l' 06 a les 01 UTC al 06 a les 03 UTC
Visibilitat: 2000 m
Núvols disperses a una alçada de 800 ft
boirina
Evolucionant progressivament
l' 06 a les 04 UTC al 06 a les 05 UTC
Vent 10 kt del Est/Sud-Est
Visibilitat: 6000 m

TAF: VOBG 052300Z 0600/0609 VRB02KT 5000 BR FEW010 TEMPO 0601/0603 2000 BR SCT008 BECMG 0604/0605 11010KT 6000 NSC

Observacions i pronòstics meteorològics de més de 4000 aeroports (METAR i TAF).

Les estacions disponibles són els punts grocs i vermells al mapa.

Posi el ratolí al punt desitjat per veure el nom de l'estació.

Feu clic per veure les observacions i els pronòstics meteorològics.

Per canviar el mapa: feu clic els botons verds amb una creu de color negre per apropar; al botó verd amb un guió per allunyar la imatge; o en les fletxes verdes per a mapes adjacents.


METAR-TAF: